sensor_id;sensor_type;location;lat;lon;timestamp;pressure;altitude;pressure_sealevel;temperature;humidity
69200;BME280;56313;49.804;9.952;2022-08-27T00:01:46;98972.31;;;20.03;77.52
69200;BME280;56313;49.804;9.952;2022-08-27T00:04:11;98971.78;;;19.55;79.19
69200;BME280;56313;49.804;9.952;2022-08-27T00:06:36;98972.63;;;19.48;79.89
69200;BME280;56313;49.804;9.952;2022-08-27T00:09:02;98968.56;;;19.46;79.63
69200;BME280;56313;49.804;9.952;2022-08-27T00:11:28;98968.41;;;19.34;80.41
69200;BME280;56313;49.804;9.952;2022-08-27T00:13:53;98958.66;;;19.21;79.99
69200;BME280;56313;49.804;9.952;2022-08-27T00:16:21;98952.56;;;19.07;80.57
69200;BME280;56313;49.804;9.952;2022-08-27T00:18:46;98960.53;;;19.14;80.84
69200;BME280;56313;49.804;9.952;2022-08-27T00:21:12;98956.78;;;19.28;80.45
69200;BME280;56313;49.804;9.952;2022-08-27T00:23:37;98957.66;;;19.54;80.53
69200;BME280;56313;49.804;9.952;2022-08-27T00:26:03;98959.38;;;19.42;79.49
69200;BME280;56313;49.804;9.952;2022-08-27T00:28:30;98967.59;;;19.98;77.83
69200;BME280;56313;49.804;9.952;2022-08-27T00:30:56;98959.97;;;19.44;78.51
69200;BME280;56313;49.804;9.952;2022-08-27T00:33:21;98961.50;;;19.26;79.21
69200;BME280;56313;49.804;9.952;2022-08-27T00:35:49;98960.44;;;19.34;79.44
69200;BME280;56313;49.804;9.952;2022-08-27T00:38:15;98961.31;;;19.92;78.76
69200;BME280;56313;49.804;9.952;2022-08-27T00:40:41;98967.00;;;19.31;77.97
69200;BME280;56313;49.804;9.952;2022-08-27T00:43:06;98958.88;;;19.19;78.51
69200;BME280;56313;49.804;9.952;2022-08-27T00:45:37;98967.44;;;19.21;79.05
69200;BME280;56313;49.804;9.952;2022-08-27T00:48:03;98969.09;;;19.22;78.50
69200;BME280;56313;49.804;9.952;2022-08-27T00:50:33;98967.91;;;19.11;78.84
69200;BME280;56313;49.804;9.952;2022-08-27T00:53:05;98968.31;;;19.86;79.74
69200;BME280;56313;49.804;9.952;2022-08-27T00:55:32;98969.66;;;20.66;76.54
69200;BME280;56313;49.804;9.952;2022-08-27T00:58:17;98968.84;;;20.46;75.14
69200;BME280;56313;49.804;9.952;2022-08-27T01:00:43;98968.88;;;20.21;76.48
69200;BME280;56313;49.804;9.952;2022-08-27T01:03:09;98974.41;;;20.63;75.24
69200;BME280;56313;49.804;9.952;2022-08-27T01:05:34;98972.00;;;20.36;75.53
69200;BME280;56313;49.804;9.952;2022-08-27T01:08:06;98979.41;;;20.09;76.81
69200;BME280;56313;49.804;9.952;2022-08-27T01:10:32;98974.25;;;19.82;76.15
69200;BME280;56313;49.804;9.952;2022-08-27T01:12:58;98973.03;;;19.45;78.04
69200;BME280;56313;49.804;9.952;2022-08-27T01:15:24;98975.84;;;19.18;79.13
69200;BME280;56313;49.804;9.952;2022-08-27T01:17:50;98969.91;;;19.16;79.81
69200;BME280;56313;49.804;9.952;2022-08-27T01:20:20;98970.09;;;19.21;79.61
69200;BME280;56313;49.804;9.952;2022-08-27T01:25:13;98972.78;;;19.15;80.66
69200;BME280;56313;49.804;9.952;2022-08-27T01:27:39;98970.53;;;19.18;80.69
69200;BME280;56313;49.804;9.952;2022-08-27T01:30:06;98975.44;;;19.15;81.07
69200;BME280;56313;49.804;9.952;2022-08-27T01:32:32;98973.41;;;19.10;80.55
69200;BME280;56313;49.804;9.952;2022-08-27T01:34:59;98975.88;;;19.05;81.22
69200;BME280;56313;49.804;9.952;2022-08-27T01:37:25;98973.19;;;19.11;81.03
69200;BME280;56313;49.804;9.952;2022-08-27T01:39:51;98976.69;;;19.12;80.75
69200;BME280;56313;49.804;9.952;2022-08-27T01:44:49;98976.06;;;19.17;81.34
69200;BME280;56313;49.804;9.952;2022-08-27T01:47:16;98971.47;;;19.31;80.68
69200;BME280;56313;49.804;9.952;2022-08-27T01:49:41;98977.34;;;19.40;80.91
69200;BME280;56313;49.804;9.952;2022-08-27T01:52:07;98972.31;;;19.24;81.12
69200;BME280;56313;49.804;9.952;2022-08-27T01:54:32;98960.75;;;19.12;81.39
69200;BME280;56313;49.804;9.952;2022-08-27T01:56:57;98965.88;;;19.00;81.69
69200;BME280;56313;49.804;9.952;2022-08-27T01:59:23;98966.09;;;18.98;81.65
69200;BME280;56313;49.804;9.952;2022-08-27T02:01:49;98967.28;;;19.03;81.97
69200;BME280;56313;49.804;9.952;2022-08-27T02:04:15;98963.41;;;19.12;82.38
69200;BME280;56313;49.804;9.952;2022-08-27T02:06:40;98966.28;;;19.10;81.88
69200;BME280;56313;49.804;9.952;2022-08-27T02:09:05;98963.59;;;19.04;81.73
69200;BME280;56313;49.804;9.952;2022-08-27T02:11:30;98969.13;;;19.09;82.03
69200;BME280;56313;49.804;9.952;2022-08-27T02:13:56;98966.03;;;19.05;82.67
69200;BME280;56313;49.804;9.952;2022-08-27T02:16:21;98955.47;;;18.98;81.61
69200;BME280;56313;49.804;9.952;2022-08-27T02:18:47;98959.53;;;19.01;82.53
69200;BME280;56313;49.804;9.952;2022-08-27T02:21:12;98950.16;;;18.98;83.24
69200;BME280;56313;49.804;9.952;2022-08-27T02:23:38;98951.78;;;18.99;82.98
69200;BME280;56313;49.804;9.952;2022-08-27T02:26:04;98957.72;;;18.95;83.77
69200;BME280;56313;49.804;9.952;2022-08-27T02:28:29;98949.53;;;18.96;83.23
69200;BME280;56313;49.804;9.952;2022-08-27T02:30:55;98950.94;;;19.06;82.38
69200;BME280;56313;49.804;9.952;2022-08-27T02:33:20;98955.81;;;19.22;81.44
69200;BME280;56313;49.804;9.952;2022-08-27T02:35:45;98963.13;;;19.27;82.47
69200;BME280;56313;49.804;9.952;2022-08-27T02:38:10;98958.84;;;19.26;81.27
69200;BME280;56313;49.804;9.952;2022-08-27T02:40:36;98960.03;;;19.37;81.10
69200;BME280;56313;49.804;9.952;2022-08-27T02:43:02;98953.09;;;19.29;81.11
69200;BME280;56313;49.804;9.952;2022-08-27T02:45:27;98955.53;;;19.37;82.25
69200;BME280;56313;49.804;9.952;2022-08-27T02:47:53;98954.09;;;19.35;81.68
69200;BME280;56313;49.804;9.952;2022-08-27T02:50:18;98949.56;;;19.42;80.98
69200;BME280;56313;49.804;9.952;2022-08-27T02:52:43;98946.88;;;19.49;81.90
69200;BME280;56313;49.804;9.952;2022-08-27T02:55:12;98951.22;;;19.43;82.44
69200;BME280;56313;49.804;9.952;2022-08-27T02:57:38;98952.22;;;19.42;81.94
69200;BME280;56313;49.804;9.952;2022-08-27T03:00:04;98948.91;;;19.54;81.79
69200;BME280;56313;49.804;9.952;2022-08-27T03:02:29;98953.38;;;19.60;81.73
69200;BME280;56313;49.804;9.952;2022-08-27T03:04:55;98940.59;;;19.43;82.42
69200;BME280;56313;49.804;9.952;2022-08-27T03:07:20;98934.22;;;19.51;82.95
69200;BME280;56313;49.804;9.952;2022-08-27T03:09:48;98944.00;;;19.50;82.98
69200;BME280;56313;49.804;9.952;2022-08-27T03:12:13;98934.72;;;19.34;83.40
69200;BME280;56313;49.804;9.952;2022-08-27T03:14:39;98936.38;;;19.29;83.01
69200;BME280;56313;49.804;9.952;2022-08-27T03:17:05;98936.75;;;19.32;83.30
69200;BME280;56313;49.804;9.952;2022-08-27T03:19:48;98935.13;;;19.31;83.75
69200;BME280;56313;49.804;9.952;2022-08-27T03:22:14;98931.44;;;19.32;83.72
69200;BME280;56313;49.804;9.952;2022-08-27T03:24:39;98933.88;;;19.41;83.62
69200;BME280;56313;49.804;9.952;2022-08-27T03:27:05;98932.44;;;19.38;83.58
69200;BME280;56313;49.804;9.952;2022-08-27T03:29:31;98940.44;;;19.31;83.38
69200;BME280;56313;49.804;9.952;2022-08-27T03:31:58;98944.25;;;19.42;83.60
69200;BME280;56313;49.804;9.952;2022-08-27T03:34:23;98941.16;;;19.45;83.56
69200;BME280;56313;49.804;9.952;2022-08-27T03:36:48;98938.72;;;19.44;83.18
69200;BME280;56313;49.804;9.952;2022-08-27T03:39:15;98943.59;;;19.47;83.43
69200;BME280;56313;49.804;9.952;2022-08-27T03:41:40;98948.91;;;19.47;82.98
69200;BME280;56313;49.804;9.952;2022-08-27T03:44:05;98945.69;;;19.45;82.50
69200;BME280;56313;49.804;9.952;2022-08-27T03:46:31;98948.63;;;19.30;83.05
69200;BME280;56313;49.804;9.952;2022-08-27T03:48:56;98942.94;;;19.19;83.48
69200;BME280;56313;49.804;9.952;2022-08-27T03:51:21;98951.97;;;19.11;83.82
69200;BME280;56313;49.804;9.952;2022-08-27T03:53:47;98949.72;;;19.08;84.68
69200;BME280;56313;49.804;9.952;2022-08-27T03:56:12;98940.16;;;19.07;84.15
69200;BME280;56313;49.804;9.952;2022-08-27T03:58:38;98949.94;;;19.14;84.29
69200;BME280;56313;49.804;9.952;2022-08-27T04:01:04;98944.78;;;19.19;84.38
69200;BME280;56313;49.804;9.952;2022-08-27T04:03:29;98941.13;;;19.20;84.54
69200;BME280;56313;49.804;9.952;2022-08-27T04:05:55;98949.88;;;19.27;84.18
69200;BME280;56313;49.804;9.952;2022-08-27T04:08:21;98948.16;;;19.40;83.37
69200;BME280;56313;49.804;9.952;2022-08-27T04:10:47;98952.81;;;19.51;82.50
69200;BME280;56313;49.804;9.952;2022-08-27T04:13:13;98952.34;;;19.54;82.56
69200;BME280;56313;49.804;9.952;2022-08-27T04:15:44;98950.94;;;19.52;82.63
69200;BME280;56313;49.804;9.952;2022-08-27T04:18:10;98954.22;;;19.47;82.37
69200;BME280;56313;49.804;9.952;2022-08-27T04:20:36;98959.47;;;19.60;81.95
69200;BME280;56313;49.804;9.952;2022-08-27T04:23:02;98956.69;;;19.48;81.63
69200;BME280;56313;49.804;9.952;2022-08-27T04:25:27;98956.31;;;19.45;81.20
69200;BME280;56313;49.804;9.952;2022-08-27T04:27:53;98963.66;;;19.43;81.18
69200;BME280;56313;49.804;9.952;2022-08-27T04:30:18;98963.09;;;19.34;81.61
69200;BME280;56313;49.804;9.952;2022-08-27T04:32:43;98965.53;;;19.35;81.84
69200;BME280;56313;49.804;9.952;2022-08-27T04:35:09;98964.09;;;19.40;81.94
69200;BME280;56313;49.804;9.952;2022-08-27T04:37:35;98967.78;;;19.39;82.30
69200;BME280;56313;49.804;9.952;2022-08-27T04:40:01;98966.31;;;19.43;82.19
69200;BME280;56313;49.804;9.952;2022-08-27T04:42:26;98969.41;;;19.40;82.22
69200;BME280;56313;49.804;9.952;2022-08-27T04:44:51;98962.19;;;19.47;81.91
69200;BME280;56313;49.804;9.952;2022-08-27T04:47:17;98965.06;;;19.45;82.20
69200;BME280;56313;49.804;9.952;2022-08-27T04:49:43;98965.97;;;19.32;82.09
69200;BME280;56313;49.804;9.952;2022-08-27T04:52:08;98961.63;;;19.45;81.70
69200;BME280;56313;49.804;9.952;2022-08-27T04:54:33;98967.34;;;19.42;82.31
69200;BME280;56313;49.804;9.952;2022-08-27T04:57:02;98965.31;;;19.37;82.16
69200;BME280;56313;49.804;9.952;2022-08-27T04:59:29;98969.19;;;19.41;82.07
69200;BME280;56313;49.804;9.952;2022-08-27T05:01:55;98968.59;;;19.39;82.14
69200;BME280;56313;49.804;9.952;2022-08-27T05:04:20;98968.69;;;19.19;82.83
69200;BME280;56313;49.804;9.952;2022-08-27T05:06:46;98974.13;;;19.31;82.61
69200;BME280;56313;49.804;9.952;2022-08-27T05:09:13;98972.94;;;19.27;82.76
69200;BME280;56313;49.804;9.952;2022-08-27T05:11:38;98974.38;;;19.61;80.43
69200;BME280;56313;49.804;9.952;2022-08-27T05:14:04;98968.97;;;19.43;81.68
69200;BME280;56313;49.804;9.952;2022-08-27T05:16:30;98966.94;;;19.45;81.77
69200;BME280;56313;49.804;9.952;2022-08-27T05:18:56;98964.00;;;19.60;80.87
69200;BME280;56313;49.804;9.952;2022-08-27T05:21:26;98975.81;;;19.64;80.88
69200;BME280;56313;49.804;9.952;2022-08-27T05:23:52;98975.34;;;19.99;79.23
69200;BME280;56313;49.804;9.952;2022-08-27T05:26:18;98977.78;;;19.75;79.58
69200;BME280;56313;49.804;9.952;2022-08-27T05:28:44;98976.78;;;19.70;80.25
69200;BME280;56313;49.804;9.952;2022-08-27T05:31:10;98974.84;;;19.84;80.20
69200;BME280;56313;49.804;9.952;2022-08-27T05:33:36;98973.19;;;19.57;81.17
69200;BME280;56313;49.804;9.952;2022-08-27T05:36:02;98975.81;;;19.64;80.75
69200;BME280;56313;49.804;9.952;2022-08-27T05:38:29;98977.72;;;19.50;80.78
69200;BME280;56313;49.804;9.952;2022-08-27T05:41:05;98975.84;;;19.57;80.80
69200;BME280;56313;49.804;9.952;2022-08-27T05:43:31;98979.19;;;19.46;81.16
69200;BME280;56313;49.804;9.952;2022-08-27T05:45:56;98975.47;;;19.54;81.19
69200;BME280;56313;49.804;9.952;2022-08-27T05:48:21;98981.91;;;19.65;80.51
69200;BME280;56313;49.804;9.952;2022-08-27T05:50:46;98983.56;;;19.66;80.57
69200;BME280;56313;49.804;9.952;2022-08-27T05:53:12;98976.19;;;19.68;79.73
69200;BME280;56313;49.804;9.952;2022-08-27T05:55:38;98981.19;;;19.83;80.01
69200;BME280;56313;49.804;9.952;2022-08-27T05:58:04;98983.78;;;19.64;79.92
69200;BME280;56313;49.804;9.952;2022-08-27T06:00:30;98976.72;;;19.51;80.68
69200;BME280;56313;49.804;9.952;2022-08-27T06:03:16;98979.69;;;19.61;80.52
69200;BME280;56313;49.804;9.952;2022-08-27T06:05:41;98983.94;;;19.69;80.87
69200;BME280;56313;49.804;9.952;2022-08-27T06:08:06;98984.06;;;19.81;79.98
69200;BME280;56313;49.804;9.952;2022-08-27T06:10:37;98992.53;;;19.71;80.72
69200;BME280;56313;49.804;9.952;2022-08-27T06:13:03;98992.47;;;19.78;80.06
69200;BME280;56313;49.804;9.952;2022-08-27T06:15:28;98984.06;;;19.81;80.03
69200;BME280;56313;49.804;9.952;2022-08-27T06:17:53;98982.88;;;19.77;79.96
69200;BME280;56313;49.804;9.952;2022-08-27T06:20:22;98985.88;;;19.55;80.93
69200;BME280;56313;49.804;9.952;2022-08-27T06:22:50;98988.25;;;19.63;80.83
69200;BME280;56313;49.804;9.952;2022-08-27T06:25:15;98989.81;;;19.78;80.19
69200;BME280;56313;49.804;9.952;2022-08-27T06:27:41;98992.53;;;19.71;81.18
69200;BME280;56313;49.804;9.952;2022-08-27T06:30:06;98990.78;;;19.84;80.27
69200;BME280;56313;49.804;9.952;2022-08-27T06:32:31;98993.47;;;20.16;79.33
69200;BME280;56313;49.804;9.952;2022-08-27T06:34:57;98992.13;;;20.25;78.59
69200;BME280;56313;49.804;9.952;2022-08-27T06:37:22;98999.50;;;19.98;79.46
69200;BME280;56313;49.804;9.952;2022-08-27T06:39:47;98996.97;;;19.78;79.79
69200;BME280;56313;49.804;9.952;2022-08-27T06:42:12;98990.63;;;19.79;80.68
69200;BME280;56313;49.804;9.952;2022-08-27T06:44:38;98994.69;;;20.13;79.87
69200;BME280;56313;49.804;9.952;2022-08-27T06:47:15;98998.13;;;19.88;79.52
69200;BME280;56313;49.804;9.952;2022-08-27T06:49:40;99008.31;;;19.92;79.52
69200;BME280;56313;49.804;9.952;2022-08-27T06:52:05;98999.72;;;19.96;79.82
69200;BME280;56313;49.804;9.952;2022-08-27T06:54:31;99002.88;;;20.37;78.78
69200;BME280;56313;49.804;9.952;2022-08-27T06:56:59;99010.31;;;20.03;79.14
69200;BME280;56313;49.804;9.952;2022-08-27T06:59:24;99016.41;;;20.10;79.08
69200;BME280;56313;49.804;9.952;2022-08-27T07:01:50;99017.28;;;20.04;78.80
69200;BME280;56313;49.804;9.952;2022-08-27T07:04:22;99024.59;;;20.09;78.95
69200;BME280;56313;49.804;9.952;2022-08-27T07:06:48;99023.38;;;20.05;78.59
69200;BME280;56313;49.804;9.952;2022-08-27T07:09:13;99035.44;;;20.07;79.00
69200;BME280;56313;49.804;9.952;2022-08-27T07:11:38;99030.34;;;19.99;79.30
69200;BME280;56313;49.804;9.952;2022-08-27T07:14:04;99034.91;;;19.92;79.24
69200;BME280;56313;49.804;9.952;2022-08-27T07:16:30;99032.63;;;19.95;79.55
69200;BME280;56313;49.804;9.952;2022-08-27T07:18:56;99033.44;;;20.03;80.09
69200;BME280;56313;49.804;9.952;2022-08-27T07:21:22;99035.59;;;20.12;79.27
69200;BME280;56313;49.804;9.952;2022-08-27T07:23:48;99037.75;;;20.29;78.49
69200;BME280;56313;49.804;9.952;2022-08-27T07:26:14;99039.97;;;20.32;78.36
69200;BME280;56313;49.804;9.952;2022-08-27T07:28:40;99034.69;;;20.25;78.10
69200;BME280;56313;49.804;9.952;2022-08-27T07:31:07;99034.25;;;20.29;78.86
69200;BME280;56313;49.804;9.952;2022-08-27T07:33:36;99047.28;;;20.11;78.87
69200;BME280;56313;49.804;9.952;2022-08-27T07:36:02;99040.34;;;20.36;78.84
69200;BME280;56313;49.804;9.952;2022-08-27T07:38:28;99041.59;;;20.33;77.91
69200;BME280;56313;49.804;9.952;2022-08-27T07:40:53;99042.75;;;20.44;77.39
69200;BME280;56313;49.804;9.952;2022-08-27T07:43:18;99051.91;;;20.48;77.86
69200;BME280;56313;49.804;9.952;2022-08-27T07:46:02;99047.19;;;20.50;77.70
69200;BME280;56313;49.804;9.952;2022-08-27T07:48:28;99045.28;;;20.58;77.64
69200;BME280;56313;49.804;9.952;2022-08-27T07:50:55;99048.50;;;20.41;77.54
69200;BME280;56313;49.804;9.952;2022-08-27T07:53:20;99043.22;;;20.34;77.32
69200;BME280;56313;49.804;9.952;2022-08-27T07:55:46;99056.28;;;20.36;77.38
69200;BME280;56313;49.804;9.952;2022-08-27T07:58:12;99050.75;;;20.37;77.71
69200;BME280;56313;49.804;9.952;2022-08-27T08:00:41;99056.25;;;20.43;77.71
69200;BME280;56313;49.804;9.952;2022-08-27T08:03:07;99056.63;;;20.46;77.74
69200;BME280;56313;49.804;9.952;2022-08-27T08:05:33;99050.50;;;20.46;77.70
69200;BME280;56313;49.804;9.952;2022-08-27T08:07:59;99053.91;;;20.53;77.44
69200;BME280;56313;49.804;9.952;2022-08-27T08:10:25;99048.75;;;20.58;77.26
69200;BME280;56313;49.804;9.952;2022-08-27T08:12:51;99046.03;;;20.65;77.41
69200;BME280;56313;49.804;9.952;2022-08-27T08:15:16;99053.63;;;20.61;77.16
69200;BME280;56313;49.804;9.952;2022-08-27T08:17:42;99053.63;;;20.61;76.85
69200;BME280;56313;49.804;9.952;2022-08-27T08:20:08;99052.38;;;20.89;75.69
69200;BME280;56313;49.804;9.952;2022-08-27T08:22:33;99062.97;;;20.71;75.99
69200;BME280;56313;49.804;9.952;2022-08-27T08:24:59;99057.25;;;20.67;76.55
69200;BME280;56313;49.804;9.952;2022-08-27T08:27:24;99055.94;;;20.76;76.01
69200;BME280;56313;49.804;9.952;2022-08-27T08:29:50;99054.53;;;20.99;76.24
69200;BME280;56313;49.804;9.952;2022-08-27T08:32:15;99061.63;;;21.06;75.76
69200;BME280;56313;49.804;9.952;2022-08-27T08:34:44;99063.75;;;20.97;74.91
69200;BME280;56313;49.804;9.952;2022-08-27T08:37:09;99060.38;;;21.08;74.96
69200;BME280;56313;49.804;9.952;2022-08-27T08:39:35;99065.25;;;21.30;75.47
69200;BME280;56313;49.804;9.952;2022-08-27T08:42:02;99072.78;;;21.14;75.31
69200;BME280;56313;49.804;9.952;2022-08-27T08:44:35;99076.56;;;21.25;74.67
69200;BME280;56313;49.804;9.952;2022-08-27T08:47:04;99073.47;;;21.29;74.45
69200;BME280;56313;49.804;9.952;2022-08-27T08:49:42;99072.66;;;21.09;75.87
69200;BME280;56313;49.804;9.952;2022-08-27T08:54:57;99075.41;;;21.21;74.75
69200;BME280;56313;49.804;9.952;2022-08-27T08:57:29;99073.84;;;21.13;75.09
69200;BME280;56313;49.804;9.952;2022-08-27T09:00:00;99081.59;;;21.34;73.98
69200;BME280;56313;49.804;9.952;2022-08-27T09:02:26;99079.47;;;21.24;75.17
69200;BME280;56313;49.804;9.952;2022-08-27T09:04:51;99076.34;;;21.27;74.44
69200;BME280;56313;49.804;9.952;2022-08-27T09:12:35;99069.34;;;21.63;73.17
69200;BME280;56313;49.804;9.952;2022-08-27T09:17:32;99064.28;;;21.93;72.02
69200;BME280;56313;49.804;9.952;2022-08-27T09:19:58;99062.09;;;22.01;71.36
69200;BME280;56313;49.804;9.952;2022-08-27T09:27:37;99068.84;;;22.04;71.55
69200;BME280;56313;49.804;9.952;2022-08-27T09:30:07;99069.13;;;21.84;70.87
69200;BME280;56313;49.804;9.952;2022-08-27T09:32:33;99068.00;;;21.73;70.16
69200;BME280;56313;49.804;9.952;2022-08-27T09:34:59;99061.63;;;21.74;71.81
69200;BME280;56313;49.804;9.952;2022-08-27T09:37:32;99063.00;;;21.95;71.23
69200;BME280;56313;49.804;9.952;2022-08-27T09:40:24;99060.44;;;21.88;70.88
69200;BME280;56313;49.804;9.952;2022-08-27T09:42:51;99054.44;;;21.74;71.73
69200;BME280;56313;49.804;9.952;2022-08-27T09:45:26;99060.31;;;21.64;71.56
69200;BME280;56313;49.804;9.952;2022-08-27T09:48:03;99055.19;;;21.82;70.96
69200;BME280;56313;49.804;9.952;2022-08-27T09:50:30;99048.25;;;21.81;71.33
69200;BME280;56313;49.804;9.952;2022-08-27T09:52:59;99054.78;;;21.97;70.65
69200;BME280;56313;49.804;9.952;2022-08-27T09:55:28;99050.84;;;21.99;70.95
69200;BME280;56313;49.804;9.952;2022-08-27T09:57:54;99050.91;;;21.81;70.94
69200;BME280;56313;49.804;9.952;2022-08-27T10:00:26;99046.91;;;21.71;71.84
69200;BME280;56313;49.804;9.952;2022-08-27T10:02:52;99046.16;;;21.83;70.99
69200;BME280;56313;49.804;9.952;2022-08-27T10:05:24;99043.19;;;21.91;70.29
69200;BME280;56313;49.804;9.952;2022-08-27T10:07:51;99046.84;;;21.78;70.37
69200;BME280;56313;49.804;9.952;2022-08-27T10:12:55;99038.88;;;21.78;70.96
69200;BME280;56313;49.804;9.952;2022-08-27T10:15:22;99038.47;;;21.74;69.94
69200;BME280;56313;49.804;9.952;2022-08-27T10:20:40;99048.28;;;21.74;69.70
69200;BME280;56313;49.804;9.952;2022-08-27T10:28:20;99054.66;;;21.42;72.86
69200;BME280;56313;49.804;9.952;2022-08-27T10:38:32;99065.91;;;21.25;75.40
69200;BME280;56313;49.804;9.952;2022-08-27T10:41:07;99064.34;;;21.18;76.97
69200;BME280;56313;49.804;9.952;2022-08-27T10:43:56;99067.03;;;20.99;76.29
69200;BME280;56313;49.804;9.952;2022-08-27T10:54:11;99059.53;;;21.26;73.96
69200;BME280;56313;49.804;9.952;2022-08-27T11:01:51;99073.31;;;21.42;73.95
69200;BME280;56313;49.804;9.952;2022-08-27T11:04:21;99074.59;;;21.39;73.58
69200;BME280;56313;49.804;9.952;2022-08-27T11:09:21;99072.13;;;21.38;73.08
69200;BME280;56313;49.804;9.952;2022-08-27T11:11:48;99068.16;;;21.59;72.86
69200;BME280;56313;49.804;9.952;2022-08-27T11:14:27;99064.16;;;21.69;72.05
69200;BME280;56313;49.804;9.952;2022-08-27T11:16:54;99059.59;;;21.76;72.68
69200;BME280;56313;49.804;9.952;2022-08-27T11:19:24;99058.91;;;21.81;72.01
69200;BME280;56313;49.804;9.952;2022-08-27T11:24:31;99062.19;;;21.95;70.91
69200;BME280;56313;49.804;9.952;2022-08-27T11:27:01;99061.47;;;22.30;69.79
69200;BME280;56313;49.804;9.952;2022-08-27T11:29:29;99054.66;;;22.46;69.66
69200;BME280;56313;49.804;9.952;2022-08-27T11:32:06;99051.56;;;22.61;68.23
69200;BME280;56313;49.804;9.952;2022-08-27T11:40:01;99045.34;;;23.21;66.04
69200;BME280;56313;49.804;9.952;2022-08-27T11:42:39;99046.19;;;22.85;66.25
69200;BME280;56313;49.804;9.952;2022-08-27T11:47:32;99049.19;;;23.13;64.95
69200;BME280;56313;49.804;9.952;2022-08-27T11:49:58;99052.28;;;23.22;65.48
69200;BME280;56313;49.804;9.952;2022-08-27T11:52:26;99052.06;;;23.23;65.95
69200;BME280;56313;49.804;9.952;2022-08-27T11:54:56;99051.81;;;23.25;66.63
69200;BME280;56313;49.804;9.952;2022-08-27T11:57:33;99047.81;;;22.98;67.11
69200;BME280;56313;49.804;9.952;2022-08-27T12:05:34;99045.66;;;23.24;65.97
69200;BME280;56313;49.804;9.952;2022-08-27T12:08:09;99043.09;;;23.41;65.76
69200;BME280;56313;49.804;9.952;2022-08-27T12:13:31;99043.34;;;23.28;64.82
69200;BME280;56313;49.804;9.952;2022-08-27T12:16:15;99041.34;;;23.35;64.83
69200;BME280;56313;49.804;9.952;2022-08-27T12:18:50;99031.34;;;23.43;64.11
69200;BME280;56313;49.804;9.952;2022-08-27T12:24:19;99033.75;;;23.56;63.78
69200;BME280;56313;49.804;9.952;2022-08-27T12:26:55;99032.69;;;23.57;64.16
69200;BME280;56313;49.804;9.952;2022-08-27T12:29:25;99038.91;;;23.34;64.96
69200;BME280;56313;49.804;9.952;2022-08-27T12:31:54;99034.72;;;23.38;65.59
69200;BME280;56313;49.804;9.952;2022-08-27T12:34:25;99036.81;;;23.24;66.39
69200;BME280;56313;49.804;9.952;2022-08-27T12:36:51;99033.81;;;23.20;66.48
69200;BME280;56313;49.804;9.952;2022-08-27T12:39:18;99028.25;;;23.22;66.65
69200;BME280;56313;49.804;9.952;2022-08-27T12:41:45;99028.03;;;23.11;66.43
69200;BME280;56313;49.804;9.952;2022-08-27T12:44:11;99028.66;;;22.89;67.08
69200;BME280;56313;49.804;9.952;2022-08-27T12:46:42;99023.13;;;22.79;67.39
69200;BME280;56313;49.804;9.952;2022-08-27T12:49:09;99029.72;;;22.64;67.69
69200;BME280;56313;49.804;9.952;2022-08-27T12:51:35;99039.78;;;22.38;67.99
69200;BME280;56313;49.804;9.952;2022-08-27T13:04:34;99052.91;;;19.50;84.00
69200;BME280;56313;49.804;9.952;2022-08-27T13:07:01;99054.53;;;19.91;83.23
69200;BME280;56313;49.804;9.952;2022-08-27T13:09:30;99049.16;;;19.97;82.83
69200;BME280;56313;49.804;9.952;2022-08-27T13:11:57;99049.84;;;20.25;84.83
69200;BME280;56313;49.804;9.952;2022-08-27T13:14:23;99046.25;;;20.12;83.19
69200;BME280;56313;49.804;9.952;2022-08-27T13:19:35;99040.13;;;20.37;82.33
69200;BME280;56313;49.804;9.952;2022-08-27T13:22:01;99027.41;;;20.84;86.10
69200;BME280;56313;49.804;9.952;2022-08-27T13:24:33;99024.53;;;20.67;85.94
69200;BME280;56313;49.804;9.952;2022-08-27T13:27:00;99033.59;;;20.59;85.87
69200;BME280;56313;49.804;9.952;2022-08-27T13:29:26;99031.16;;;20.57;85.51
69200;BME280;56313;49.804;9.952;2022-08-27T13:31:52;99033.66;;;20.52;84.81
69200;BME280;56313;49.804;9.952;2022-08-27T13:34:23;99025.50;;;20.72;85.78
69200;BME280;56313;49.804;9.952;2022-08-27T13:39:14;99028.34;;;20.96;86.30
69200;BME280;56313;49.804;9.952;2022-08-27T13:41:40;99023.72;;;20.85;84.33
69200;BME280;56313;49.804;9.952;2022-08-27T13:44:07;99027.44;;;21.02;86.35
69200;BME280;56313;49.804;9.952;2022-08-27T13:46:33;99021.44;;;20.88;85.43
69200;BME280;56313;49.804;9.952;2022-08-27T13:49:05;99026.59;;;20.83;85.25
69200;BME280;56313;49.804;9.952;2022-08-27T13:51:37;99023.50;;;20.86;85.26
69200;BME280;56313;49.804;9.952;2022-08-27T13:54:07;99029.97;;;20.97;84.76
69200;BME280;56313;49.804;9.952;2022-08-27T13:59:21;99031.31;;;21.07;83.37
69200;BME280;56313;49.804;9.952;2022-08-27T14:04:47;99030.25;;;21.26;83.13
69200;BME280;56313;49.804;9.952;2022-08-27T14:07:14;99020.56;;;21.32;83.15
69200;BME280;56313;49.804;9.952;2022-08-27T14:09:45;99029.06;;;21.41;83.48
69200;BME280;56313;49.804;9.952;2022-08-27T14:12:17;99023.97;;;21.39;82.86
69200;BME280;56313;49.804;9.952;2022-08-27T14:14:44;99027.88;;;21.37;82.05
69200;BME280;56313;49.804;9.952;2022-08-27T14:17:19;99024.91;;;21.45;82.05
69200;BME280;56313;49.804;9.952;2022-08-27T14:19:45;99026.22;;;21.55;82.88
69200;BME280;56313;49.804;9.952;2022-08-27T14:22:11;99028.88;;;21.55;84.16
69200;BME280;56313;49.804;9.952;2022-08-27T14:24:37;99033.41;;;21.35;83.29
69200;BME280;56313;49.804;9.952;2022-08-27T14:27:09;99034.34;;;21.29;84.10
69200;BME280;56313;49.804;9.952;2022-08-27T14:29:36;99027.97;;;21.30;83.48
69200;BME280;56313;49.804;9.952;2022-08-27T14:32:01;99028.19;;;21.29;83.98
69200;BME280;56313;49.804;9.952;2022-08-27T14:34:27;99031.75;;;21.22;84.85
69200;BME280;56313;49.804;9.952;2022-08-27T14:36:52;99028.84;;;21.24;85.55
69200;BME280;56313;49.804;9.952;2022-08-27T14:39:18;99031.50;;;21.24;85.10